createdAt,value
2023-01-26T00:00:54.571Z,0.00
2023-01-26T00:01:54.563Z,0.00
2023-01-26T00:02:54.598Z,0.00
2023-01-26T00:03:54.558Z,0.00
2023-01-26T00:04:54.519Z,0.00
2023-01-26T00:05:54.489Z,0.00
2023-01-26T00:06:54.493Z,0.00
2023-01-26T00:07:54.483Z,0.00
2023-01-26T00:08:54.483Z,0.00
2023-01-26T00:09:55.468Z,0.00
2023-01-26T00:10:54.451Z,0.00
2023-01-26T00:11:54.447Z,0.00
2023-01-26T00:12:54.431Z,0.00
2023-01-26T00:13:54.419Z,0.00
2023-01-26T00:14:54.427Z,0.00
2023-01-26T00:15:54.415Z,0.00
2023-01-26T00:16:54.405Z,0.00
2023-01-26T00:17:54.379Z,0.00
2023-01-26T00:18:54.381Z,0.00
2023-01-26T00:19:54.369Z,0.00
2023-01-26T00:20:54.352Z,0.00
2023-01-26T00:21:54.346Z,0.00
2023-01-26T00:22:54.347Z,0.00
2023-01-26T00:23:54.360Z,0.00
2023-01-26T00:24:54.322Z,0.00
2023-01-26T00:25:54.301Z,0.00
2023-01-26T00:26:54.284Z,0.00
2023-01-26T00:27:54.281Z,0.00
2023-01-26T00:28:54.293Z,0.00
2023-01-26T00:29:54.292Z,0.00
2023-01-26T00:30:54.318Z,0.00
2023-01-26T00:31:54.244Z,0.00
2023-01-26T00:32:54.229Z,0.00
2023-01-26T00:33:54.216Z,0.00
2023-01-26T00:34:55.237Z,0.00
2023-01-26T00:35:54.194Z,0.00
2023-01-26T00:36:54.187Z,0.00
2023-01-26T00:37:54.187Z,0.00
2023-01-26T00:38:54.159Z,0.00
2023-01-26T00:39:54.163Z,0.00
2023-01-26T00:40:54.190Z,0.00
2023-01-26T00:41:54.146Z,0.00
2023-01-26T00:42:54.130Z,0.00
2023-01-26T00:43:54.131Z,0.00
2023-01-26T00:44:54.120Z,0.00
2023-01-26T00:45:54.090Z,0.00
2023-01-26T00:46:55.162Z,0.00
2023-01-26T00:47:54.101Z,0.00
2023-01-26T00:48:54.071Z,0.00
2023-01-26T00:49:54.076Z,0.00
2023-01-26T00:50:54.055Z,0.00
2023-01-26T00:51:54.059Z,0.00
2023-01-26T00:52:54.025Z,0.00
2023-01-26T00:53:54.035Z,0.00
2023-01-26T00:54:54.027Z,0.00
2023-01-26T00:55:54.017Z,0.00
2023-01-26T00:56:54.009Z,0.00
2023-01-26T00:57:53.986Z,0.00
2023-01-26T00:58:53.980Z,0.00
2023-01-26T00:59:53.990Z,0.00
2023-01-26T01:00:54.007Z,0.00
2023-01-26T01:01:53.995Z,0.00
2023-01-26T01:02:53.936Z,0.00
2023-01-26T01:03:53.928Z,0.00
2023-01-26T01:04:53.924Z,0.00
2023-01-26T01:05:53.909Z,0.00
2023-01-26T01:06:53.894Z,0.00
2023-01-26T01:07:53.885Z,0.00
2023-01-26T01:08:53.885Z,0.00
2023-01-26T01:09:53.881Z,0.00
2023-01-26T01:10:53.879Z,0.00
2023-01-26T01:11:53.843Z,0.00
2023-01-26T01:12:53.840Z,0.00
2023-01-26T01:13:53.844Z,0.00
2023-01-26T01:14:53.827Z,0.00
2023-01-26T01:15:53.839Z,0.00
2023-01-26T01:16:53.808Z,0.00
2023-01-26T01:17:53.795Z,0.00
2023-01-26T01:18:53.791Z,0.00
2023-01-26T01:19:53.792Z,0.00
2023-01-26T01:20:53.755Z,0.00
2023-01-26T01:21:53.763Z,0.00
2023-01-26T01:22:53.745Z,0.00
2023-01-26T01:23:53.760Z,0.00
2023-01-26T01:24:53.730Z,0.00
2023-01-26T01:25:53.710Z,0.00
2023-01-26T01:26:53.705Z,0.00
2023-01-26T01:27:53.695Z,0.00
2023-01-26T01:28:53.690Z,0.00
2023-01-26T01:29:53.688Z,0.00
2023-01-26T01:30:53.706Z,0.00
2023-01-26T01:31:53.692Z,0.00
2023-01-26T01:32:53.642Z,0.00
2023-01-26T01:33:53.637Z,0.00
2023-01-26T01:34:53.642Z,0.00
2023-01-26T01:35:53.617Z,0.00
2023-01-26T01:36:53.618Z,0.00
2023-01-26T01:37:53.593Z,0.00
2023-01-26T01:38:53.595Z,0.00
2023-01-26T01:39:53.594Z,0.00
2023-01-26T01:40:53.563Z,0.00
2023-01-26T01:41:53.557Z,0.00
2023-01-26T01:42:53.551Z,0.00
2023-01-26T01:43:53.536Z,0.00
2023-01-26T01:44:53.538Z,0.00
2023-01-26T01:45:53.526Z,0.00
2023-01-26T01:46:53.570Z,0.00
2023-01-26T01:47:53.504Z,0.00
2023-01-26T01:48:53.492Z,0.00
2023-01-26T01:49:53.497Z,0.00
2023-01-26T01:50:53.476Z,0.00
2023-01-26T01:51:53.464Z,0.00
2023-01-26T01:52:53.462Z,0.00
2023-01-26T01:53:53.444Z,0.00
2023-01-26T01:54:53.449Z,0.00
2023-01-26T01:55:53.429Z,0.00
2023-01-26T01:56:53.438Z,0.00
2023-01-26T01:57:53.402Z,0.00
2023-01-26T01:58:53.405Z,0.00
2023-01-26T01:59:53.421Z,0.00
2023-01-26T02:00:53.417Z,0.00
2023-01-26T02:01:53.416Z,0.00
2023-01-26T02:02:53.358Z,0.00
2023-01-26T02:03:53.342Z,0.00
2023-01-26T02:04:53.360Z,0.00
2023-01-26T02:05:53.325Z,0.00
2023-01-26T02:06:53.363Z,0.00
2023-01-26T02:07:53.310Z,0.00
2023-01-26T02:08:53.304Z,0.00
2023-01-26T02:09:53.305Z,0.00
2023-01-26T02:10:53.281Z,0.00
2023-01-26T02:11:53.286Z,0.00
2023-01-26T02:12:53.267Z,0.00
2023-01-26T02:13:53.248Z,0.00
2023-01-26T02:14:53.267Z,0.00
2023-01-26T02:15:53.270Z,0.00
2023-01-26T02:16:53.226Z,0.00
2023-01-26T02:17:53.220Z,0.00
2023-01-26T02:18:53.206Z,0.00
2023-01-26T02:19:53.235Z,0.00
2023-01-26T02:20:53.199Z,0.00
2023-01-26T02:21:53.183Z,0.00
2023-01-26T02:22:53.173Z,0.00
2023-01-26T02:23:53.231Z,0.00
2023-01-26T02:24:53.159Z,0.00
2023-01-26T02:25:53.153Z,0.00
2023-01-26T02:26:53.131Z,0.00
2023-01-26T02:27:53.127Z,0.00
2023-01-26T02:28:53.110Z,0.00
2023-01-26T02:29:53.112Z,0.00
2023-01-26T02:30:53.149Z,0.00
2023-01-26T02:31:53.181Z,0.00
2023-01-26T02:32:53.073Z,0.00
2023-01-26T02:33:53.065Z,0.00
2023-01-26T02:34:53.092Z,0.00
2023-01-26T02:35:53.054Z,0.00
2023-01-26T02:36:53.044Z,0.00
2023-01-26T02:37:53.031Z,0.00
2023-01-26T02:38:53.029Z,0.00
2023-01-26T02:39:53.024Z,0.00
2023-01-26T02:40:53.007Z,0.00
2023-01-26T02:41:52.991Z,0.00
2023-01-26T02:42:52.980Z,0.00
2023-01-26T02:43:52.982Z,0.00
2023-01-26T02:44:52.975Z,0.00
2023-01-26T02:45:53.000Z,0.00
2023-01-26T02:46:52.935Z,0.00
2023-01-26T02:47:53.940Z,0.00
2023-01-26T02:48:52.932Z,0.00
2023-01-26T02:49:52.917Z,0.00
2023-01-26T02:50:52.916Z,0.00
2023-01-26T02:51:52.909Z,0.00
2023-01-26T02:52:52.897Z,0.00
2023-01-26T02:53:52.885Z,0.00
2023-01-26T02:54:52.871Z,0.00
2023-01-26T02:55:52.866Z,0.00
2023-01-26T02:56:52.847Z,0.00
2023-01-26T02:57:52.853Z,0.00
2023-01-26T02:58:52.835Z,0.00
2023-01-26T02:59:52.828Z,0.00
2023-01-26T03:00:52.851Z,0.00
2023-01-26T03:01:52.872Z,0.00
2023-01-26T03:02:52.798Z,0.00
2023-01-26T03:03:52.788Z,0.00
2023-01-26T03:04:52.787Z,0.00
2023-01-26T03:05:52.794Z,0.00
2023-01-26T03:06:52.766Z,0.00
2023-01-26T03:07:52.755Z,0.00
2023-01-26T03:08:52.747Z,0.00
2023-01-26T03:09:52.723Z,0.00
2023-01-26T03:10:52.740Z,0.00
2023-01-26T03:11:52.707Z,0.00
2023-01-26T03:12:52.697Z,0.00
2023-01-26T03:13:52.690Z,0.00
2023-01-26T03:14:52.681Z,0.00
2023-01-26T03:15:53.036Z,0.00
2023-01-26T03:16:52.664Z,0.00
2023-01-26T03:17:52.651Z,0.00
2023-01-26T03:18:52.639Z,0.00
2023-01-26T03:19:52.644Z,0.00
2023-01-26T03:20:52.644Z,0.00
2023-01-26T03:21:52.619Z,0.00
2023-01-26T03:22:52.613Z,0.00
2023-01-26T03:23:52.677Z,0.00
2023-01-26T03:24:52.586Z,0.00
2023-01-26T03:25:52.596Z,0.00
2023-01-26T03:26:52.577Z,0.00
2023-01-26T03:27:52.555Z,0.00
2023-01-26T03:28:52.560Z,0.00
2023-01-26T03:29:52.554Z,0.00
2023-01-26T03:30:52.569Z,0.00
2023-01-26T03:31:52.530Z,0.00
2023-01-26T03:32:52.511Z,0.00
2023-01-26T03:33:52.498Z,0.00
2023-01-26T03:34:52.501Z,0.00
2023-01-26T03:35:52.479Z,0.00
2023-01-26T03:36:52.482Z,0.00
2023-01-26T03:37:52.464Z,0.00
2023-01-26T03:38:52.456Z,8.00
2023-01-26T03:39:52.440Z,8.00
2023-01-26T03:40:52.428Z,8.00
2023-01-26T03:41:52.448Z,0.00
2023-01-26T03:42:52.415Z,0.00
2023-01-26T03:43:52.418Z,0.00
2023-01-26T03:44:52.399Z,0.00
2023-01-26T03:45:52.388Z,0.00
2023-01-26T03:46:52.429Z,0.00
2023-01-26T03:47:52.366Z,0.00
2023-01-26T03:48:52.354Z,0.00
2023-01-26T03:49:52.352Z,0.00
2023-01-26T03:50:52.339Z,0.00
2023-01-26T03:51:52.355Z,0.00
2023-01-26T03:52:52.321Z,0.00
2023-01-26T03:53:52.300Z,0.00
2023-01-26T03:54:52.298Z,0.00
2023-01-26T03:55:52.285Z,0.00
2023-01-26T03:56:52.283Z,0.00
2023-01-26T03:57:52.269Z,0.00
2023-01-26T03:58:52.270Z,0.00
2023-01-26T03:59:52.242Z,0.00
2023-01-26T04:00:52.276Z,0.00
2023-01-26T04:01:52.249Z,0.00
2023-01-26T04:02:52.213Z,0.00
2023-01-26T04:03:52.211Z,0.00
2023-01-26T04:04:52.208Z,0.00
2023-01-26T04:05:52.192Z,0.00
2023-01-26T04:06:52.194Z,0.00
2023-01-26T04:07:52.170Z,0.00
2023-01-26T04:08:52.166Z,0.00
2023-01-26T04:09:52.157Z,0.00
2023-01-26T04:10:52.152Z,0.00
2023-01-26T04:11:52.152Z,0.00
2023-01-26T04:12:52.133Z,0.00
2023-01-26T04:13:52.120Z,0.00
2023-01-26T04:14:52.101Z,0.00
2023-01-26T04:15:52.097Z,0.00
2023-01-26T04:16:52.103Z,0.00
2023-01-26T04:17:52.073Z,0.00
2023-01-26T04:18:52.064Z,0.00
2023-01-26T04:19:52.061Z,0.00
2023-01-26T04:20:52.056Z,0.00
2023-01-26T04:21:52.061Z,0.00
2023-01-26T04:22:52.093Z,0.00
2023-01-26T04:23:52.101Z,0.00
2023-01-26T04:24:52.031Z,0.00
2023-01-26T04:25:51.997Z,0.00
2023-01-26T04:26:52.012Z,0.00
2023-01-26T04:27:51.995Z,0.00
2023-01-26T04:28:51.967Z,0.00
2023-01-26T04:29:51.968Z,0.00
2023-01-26T04:30:51.985Z,0.00
2023-01-26T04:31:52.060Z,0.00
2023-01-26T04:32:51.942Z,0.00
2023-01-26T04:33:52.746Z,0.00
2023-01-26T04:34:51.916Z,0.00
2023-01-26T04:35:51.904Z,0.00
2023-01-26T04:36:51.916Z,0.00
2023-01-26T04:37:51.885Z,0.00
2023-01-26T04:38:51.885Z,0.00
2023-01-26T04:39:51.868Z,0.00
2023-01-26T04:40:51.842Z,0.00
2023-01-26T04:41:52.858Z,0.00
2023-01-26T04:42:51.841Z,0.00
2023-01-26T04:43:51.828Z,0.00
2023-01-26T04:44:51.823Z,0.00
2023-01-26T04:45:51.812Z,0.00
2023-01-26T04:46:51.817Z,0.00
2023-01-26T04:47:51.784Z,0.00
2023-01-26T04:48:51.785Z,0.00
2023-01-26T04:49:51.801Z,0.00
2023-01-26T04:50:51.762Z,0.00
2023-01-26T04:51:51.765Z,0.00
2023-01-26T04:52:51.740Z,0.00
2023-01-26T04:53:51.729Z,0.00
2023-01-26T04:54:51.734Z,0.00
2023-01-26T04:55:51.711Z,0.00
2023-01-26T04:56:51.749Z,0.00
2023-01-26T04:57:51.692Z,0.00
2023-01-26T04:58:51.681Z,0.00
2023-01-26T04:59:51.675Z,0.00
2023-01-26T05:00:51.687Z,0.00
2023-01-26T05:01:51.661Z,0.00
2023-01-26T05:02:51.653Z,0.00
2023-01-26T05:03:51.652Z,0.00
2023-01-26T05:04:51.629Z,0.00
2023-01-26T05:05:51.621Z,0.00
2023-01-26T05:06:51.607Z,0.00
2023-01-26T05:07:51.608Z,0.00
2023-01-26T05:08:51.583Z,0.00
2023-01-26T05:09:51.579Z,0.00
2023-01-26T05:10:51.565Z,0.00
2023-01-26T05:11:51.566Z,0.00
2023-01-26T05:12:51.563Z,0.00
2023-01-26T05:13:51.560Z,0.00
2023-01-26T05:14:51.544Z,0.00
2023-01-26T05:15:51.517Z,0.00
2023-01-26T05:16:51.526Z,0.00
2023-01-26T05:17:51.512Z,0.00
2023-01-26T05:18:51.497Z,0.00
2023-01-26T05:19:51.496Z,0.00
2023-01-26T05:20:51.470Z,0.00
2023-01-26T05:21:51.465Z,0.00
2023-01-26T05:22:51.464Z,0.00
2023-01-26T05:23:51.541Z,0.00
2023-01-26T05:24:51.432Z,0.00
2023-01-26T05:25:51.420Z,0.00
2023-01-26T05:26:51.412Z,0.00
2023-01-26T05:27:51.413Z,0.00
2023-01-26T05:28:51.392Z,0.00
2023-01-26T05:29:51.393Z,0.00
2023-01-26T05:30:51.464Z,0.00
2023-01-26T05:31:51.409Z,0.00
2023-01-26T05:32:51.367Z,0.00
2023-01-26T05:33:51.356Z,0.00
2023-01-26T05:34:51.344Z,0.00
2023-01-26T05:35:51.327Z,0.00
2023-01-26T05:36:51.340Z,0.00
2023-01-26T05:37:51.324Z,0.00
2023-01-26T05:38:51.304Z,0.00
2023-01-26T05:39:51.288Z,0.00
2023-01-26T05:40:51.285Z,0.00
2023-01-26T05:41:51.265Z,0.00
2023-01-26T05:42:51.284Z,0.00
2023-01-26T05:43:51.255Z,0.00
2023-01-26T05:44:51.249Z,0.00
2023-01-26T05:45:51.260Z,0.00
2023-01-26T05:46:51.224Z,0.00
2023-01-26T05:47:51.224Z,0.00
2023-01-26T05:48:51.209Z,0.00
2023-01-26T05:49:51.199Z,0.00
2023-01-26T05:50:51.209Z,0.00
2023-01-26T05:51:51.179Z,0.00
2023-01-26T05:52:51.180Z,0.00
2023-01-26T05:53:51.775Z,0.00
2023-01-26T05:54:51.148Z,0.00
2023-01-26T05:55:51.144Z,0.00
2023-01-26T05:56:51.134Z,0.00
2023-01-26T05:57:51.133Z,0.00
2023-01-26T05:58:51.116Z,0.00
2023-01-26T05:59:51.106Z,0.00
2023-01-26T06:00:51.100Z,0.00
2023-01-26T06:01:51.106Z,0.00
2023-01-26T06:02:51.089Z,0.00
2023-01-26T06:03:51.076Z,0.00
2023-01-26T06:04:51.059Z,0.00
2023-01-26T06:05:51.039Z,0.00
2023-01-26T06:06:51.035Z,0.00
2023-01-26T06:07:51.070Z,0.00
2023-01-26T06:08:51.024Z,0.00
2023-01-26T06:09:51.013Z,0.00
2023-01-26T06:10:51.009Z,0.00
2023-01-26T06:11:50.996Z,0.00
2023-01-26T06:12:51.023Z,0.00
2023-01-26T06:13:50.976Z,0.00
2023-01-26T06:14:50.960Z,0.00
2023-01-26T06:15:50.962Z,0.00
2023-01-26T06:16:50.970Z,0.00
2023-01-26T06:17:50.966Z,0.00
2023-01-26T06:18:50.930Z,0.00
2023-01-26T06:19:50.914Z,0.00
2023-01-26T06:20:50.900Z,0.00
2023-01-26T06:21:50.888Z,0.00
2023-01-26T06:22:50.901Z,0.00
2023-01-26T06:23:50.897Z,0.00
2023-01-26T06:24:50.872Z,0.00
2023-01-26T06:25:50.854Z,0.00
2023-01-26T06:26:50.846Z,0.00
2023-01-26T06:27:50.844Z,0.00
2023-01-26T06:28:50.821Z,0.00
2023-01-26T06:29:50.815Z,0.00
2023-01-26T06:30:50.909Z,0.00
2023-01-26T06:31:50.800Z,0.00
2023-01-26T06:32:50.798Z,0.00
2023-01-26T06:33:50.773Z,0.00
2023-01-26T06:34:50.775Z,0.00
2023-01-26T06:35:50.756Z,0.00
2023-01-26T06:36:50.740Z,0.00
2023-01-26T06:37:50.756Z,0.00
2023-01-26T06:38:50.730Z,0.00
2023-01-26T06:39:50.727Z,0.00
2023-01-26T06:40:50.714Z,0.00
2023-01-26T06:41:50.694Z,0.00
2023-01-26T06:42:50.690Z,0.00
2023-01-26T06:43:50.693Z,4.00
2023-01-26T06:44:50.674Z,4.00
2023-01-26T06:45:50.671Z,4.00
2023-01-26T06:46:50.639Z,0.00
2023-01-26T06:47:50.640Z,0.00
2023-01-26T06:48:50.642Z,4.00
2023-01-26T06:50:20.911Z,4.00
2023-01-26T06:50:50.660Z,4.00
2023-01-26T06:51:50.612Z,0.00
2023-01-26T06:52:50.647Z,4.00
2023-01-26T06:53:50.629Z,4.00
2023-01-26T06:54:50.590Z,4.00
2023-01-26T06:55:50.581Z,4.00
2023-01-26T06:56:50.594Z,4.00
2023-01-26T06:57:50.572Z,8.00
2023-01-26T06:58:50.617Z,8.00
2023-01-26T06:59:50.569Z,8.00
2023-01-26T07:00:50.524Z,8.00
2023-01-26T07:01:50.511Z,12.00
2023-01-26T07:02:50.527Z,8.00
2023-01-26T07:03:50.497Z,12.00
2023-01-26T07:04:50.476Z,16.00
2023-01-26T07:05:50.693Z,12.00
2023-01-26T07:06:50.633Z,16.00
2023-01-26T07:07:50.633Z,16.00
2023-01-26T07:08:50.606Z,20.00
2023-01-26T07:09:50.575Z,20.00
2023-01-26T07:10:50.473Z,20.00
2023-01-26T07:11:50.513Z,20.00
2023-01-26T07:12:50.584Z,24.00
2023-01-26T07:13:50.460Z,24.00
2023-01-26T07:14:50.393Z,28.00
2023-01-26T07:15:50.599Z,28.00
2023-01-26T07:16:50.523Z,28.00
2023-01-26T07:17:50.419Z,32.00
2023-01-26T07:18:50.429Z,32.00
2023-01-26T07:19:50.438Z,36.00
2023-01-26T07:20:50.403Z,36.00
2023-01-26T07:21:50.395Z,40.00
2023-01-26T07:22:50.621Z,40.00
2023-01-26T07:23:50.483Z,40.00
2023-01-26T07:24:50.339Z,40.00
2023-01-26T07:25:50.354Z,44.00
2023-01-26T07:26:50.339Z,44.00
2023-01-26T07:27:50.354Z,48.00
2023-01-26T07:28:50.334Z,48.00
2023-01-26T07:29:50.278Z,52.00
2023-01-26T07:30:50.301Z,56.00
2023-01-26T07:31:50.347Z,56.00
2023-01-26T07:32:50.326Z,60.00
2023-01-26T07:33:50.303Z,60.00
2023-01-26T07:34:50.238Z,64.00
2023-01-26T07:35:50.229Z,64.00
2023-01-26T07:36:50.240Z,72.00
2023-01-26T07:37:50.167Z,72.00
2023-01-26T07:38:50.186Z,76.00
2023-01-26T07:39:50.235Z,80.00
2023-01-26T07:40:50.217Z,84.00
2023-01-26T07:41:50.221Z,92.00
2023-01-26T07:42:50.166Z,96.00
2023-01-26T07:43:50.293Z,104.00
2023-01-26T07:44:50.143Z,108.00
2023-01-26T07:45:50.118Z,112.00
2023-01-26T07:46:50.354Z,112.00
2023-01-26T07:47:50.102Z,120.00
2023-01-26T07:48:50.106Z,120.00
2023-01-26T07:49:50.277Z,124.00
2023-01-26T07:50:50.102Z,128.00
2023-01-26T07:51:50.045Z,132.00
2023-01-26T07:52:50.027Z,136.00
2023-01-26T07:53:50.087Z,140.00
2023-01-26T07:54:50.030Z,140.00
2023-01-26T07:55:50.007Z,144.00
2023-01-26T07:56:50.857Z,144.00
2023-01-26T07:57:50.008Z,152.00
2023-01-26T07:58:50.084Z,156.00
2023-01-26T07:59:49.996Z,164.00
2023-01-26T08:00:49.982Z,168.00
2023-01-26T08:01:50.005Z,172.00
2023-01-26T08:02:49.931Z,180.00
2023-01-26T08:03:49.965Z,184.00
2023-01-26T08:04:49.939Z,192.00
2023-01-26T08:05:49.931Z,196.00
2023-01-26T08:06:49.890Z,204.00
2023-01-26T08:07:49.896Z,208.00
2023-01-26T08:08:49.917Z,216.00
2023-01-26T08:09:49.884Z,224.00
2023-01-26T08:10:49.957Z,228.00
2023-01-26T08:11:50.910Z,236.00
2023-01-26T08:12:49.830Z,240.00
2023-01-26T08:13:49.838Z,248.00
2023-01-26T08:14:49.835Z,248.00
2023-01-26T08:15:49.853Z,252.00
2023-01-26T08:16:49.838Z,264.00
2023-01-26T08:17:49.798Z,272.00
2023-01-26T08:18:49.902Z,276.00
2023-01-26T08:19:49.799Z,284.00
2023-01-26T08:20:49.782Z,292.00
2023-01-26T08:21:49.756Z,300.00
2023-01-26T08:22:49.882Z,304.00
2023-01-26T08:23:49.801Z,312.00
2023-01-26T08:24:49.749Z,320.00
2023-01-26T08:25:49.740Z,328.00
2023-01-26T08:26:49.782Z,340.00
2023-01-26T08:27:50.753Z,348.00
2023-01-26T08:28:49.752Z,360.00
2023-01-26T08:29:49.779Z,372.00
2023-01-26T08:30:49.785Z,384.00
2023-01-26T08:31:49.712Z,392.00
2023-01-26T08:32:49.705Z,404.00
2023-01-26T08:33:49.736Z,408.00
2023-01-26T08:34:49.692Z,412.00
2023-01-26T08:35:49.703Z,408.00
2023-01-26T08:36:49.607Z,396.00
2023-01-26T08:37:49.647Z,384.00
2023-01-26T08:38:49.599Z,364.00
2023-01-26T08:39:49.670Z,344.00
2023-01-26T08:40:49.641Z,328.00
2023-01-26T08:41:49.580Z,312.00
2023-01-26T08:42:49.560Z,304.00
2023-01-26T08:43:49.570Z,304.00
2023-01-26T08:44:49.553Z,300.00
2023-01-26T08:45:49.597Z,312.00
2023-01-26T08:46:49.560Z,320.00
2023-01-26T08:47:49.601Z,324.00
2023-01-26T08:48:49.577Z,328.00
2023-01-26T08:49:49.542Z,332.00
2023-01-26T08:50:49.496Z,328.00
2023-01-26T08:51:49.497Z,324.00
2023-01-26T08:52:49.527Z,324.00
2023-01-26T08:53:49.470Z,332.00
2023-01-26T08:54:49.506Z,340.00
2023-01-26T08:55:49.507Z,348.00
2023-01-26T08:56:49.489Z,368.00
2023-01-26T08:57:49.464Z,388.00
2023-01-26T08:58:49.442Z,412.00
2023-01-26T08:59:49.457Z,448.00
2023-01-26T09:00:49.468Z,508.00
2023-01-26T09:01:51.218Z,560.00
2023-01-26T09:02:50.729Z,600.00
2023-01-26T09:03:49.393Z,636.00
2023-01-26T09:04:49.435Z,692.00
2023-01-26T09:05:49.446Z,776.00
2023-01-26T09:06:49.392Z,860.00
2023-01-26T09:07:49.408Z,960.00
2023-01-26T09:08:49.368Z,1060.00
2023-01-26T09:09:49.324Z,1124.00
2023-01-26T09:10:49.416Z,1184.00
2023-01-26T09:11:49.392Z,1236.00
2023-01-26T09:12:49.358Z,1268.00
2023-01-26T09:13:49.294Z,1308.00
2023-01-26T09:14:49.312Z,1372.00
2023-01-26T09:15:49.295Z,1444.00
2023-01-26T09:16:49.301Z,1516.00
2023-01-26T09:17:49.313Z,1528.00
2023-01-26T09:18:49.268Z,1508.00
2023-01-26T09:19:49.254Z,1520.00
2023-01-26T09:20:49.251Z,1512.00
2023-01-26T09:21:49.233Z,1496.00
2023-01-26T09:22:49.235Z,1500.00
2023-01-26T09:23:50.250Z,1508.00
2023-01-26T09:24:49.212Z,1516.00
2023-01-26T09:25:49.193Z,1520.00
2023-01-26T09:26:49.205Z,1544.00
2023-01-26T09:27:49.192Z,1552.00
2023-01-26T09:28:49.134Z,1544.00
2023-01-26T09:29:49.230Z,1552.00
2023-01-26T09:30:49.276Z,1556.00
2023-01-26T09:31:49.300Z,1548.00
2023-01-26T09:32:49.133Z,1536.00
2023-01-26T09:33:49.137Z,1528.00
2023-01-26T09:34:49.148Z,1540.00
2023-01-26T09:35:49.224Z,1572.00
2023-01-26T09:36:49.110Z,1588.00
2023-01-26T09:37:49.054Z,1560.00
2023-01-26T09:38:49.043Z,1548.00
2023-01-26T09:39:49.043Z,1556.00
2023-01-26T09:40:49.074Z,1568.00
2023-01-26T09:41:49.038Z,1544.00
2023-01-26T09:42:49.046Z,1556.00
2023-01-26T09:43:49.008Z,1552.00
2023-01-26T09:44:49.032Z,1544.00
2023-01-26T09:45:49.052Z,1520.00
2023-01-26T09:46:48.989Z,1492.00
2023-01-26T09:47:48.968Z,1484.00
2023-01-26T09:48:48.958Z,1476.00
2023-01-26T09:49:48.932Z,1460.00
2023-01-26T09:50:49.006Z,1468.00
2023-01-26T09:51:48.919Z,1476.00
2023-01-26T09:52:48.955Z,1488.00
2023-01-26T09:53:48.905Z,1472.00
2023-01-26T09:54:48.956Z,1468.00
2023-01-26T09:55:48.899Z,1472.00
2023-01-26T09:56:48.859Z,1456.00
2023-01-26T09:57:48.834Z,1428.00
2023-01-26T09:58:48.856Z,1368.00
2023-01-26T09:59:48.839Z,1280.00
2023-01-26T10:00:48.936Z,1204.00
2023-01-26T10:01:48.872Z,1152.00
2023-01-26T10:02:48.925Z,1124.00
2023-01-26T10:03:48.836Z,1104.00
2023-01-26T10:04:48.872Z,1088.00
2023-01-26T10:05:48.871Z,1068.00
2023-01-26T10:06:48.797Z,1060.00
2023-01-26T10:07:49.048Z,1036.00
2023-01-26T10:08:48.783Z,1020.00
2023-01-26T10:09:48.804Z,1020.00
2023-01-26T10:10:48.782Z,1044.00
2023-01-26T10:11:48.778Z,1080.00
2023-01-26T10:12:48.734Z,1140.00
2023-01-26T10:13:48.700Z,1172.00
2023-01-26T10:14:49.443Z,1204.00
2023-01-26T10:15:48.692Z,1232.00
2023-01-26T10:16:48.696Z,1272.00
2023-01-26T10:17:48.690Z,1296.00
2023-01-26T10:18:48.673Z,1320.00
2023-01-26T10:19:48.676Z,1352.00
2023-01-26T10:20:48.652Z,1372.00
2023-01-26T10:21:48.732Z,1404.00
2023-01-26T10:22:48.685Z,1440.00
2023-01-26T10:23:48.712Z,1464.00
2023-01-26T10:24:48.640Z,1472.00
2023-01-26T10:25:48.636Z,1504.00
2023-01-26T10:26:52.976Z,1532.00
2023-01-26T10:27:49.642Z,1548.00
2023-01-26T10:28:48.643Z,1576.00
2023-01-26T10:29:48.640Z,1596.00
2023-01-26T10:30:48.763Z,1592.00
2023-01-26T10:31:48.614Z,1568.00
2023-01-26T10:32:48.570Z,1564.00
2023-01-26T10:33:48.601Z,1568.00
2023-01-26T10:34:48.600Z,1576.00
2023-01-26T10:35:48.636Z,1580.00
2023-01-26T10:36:48.641Z,1568.00
2023-01-26T10:37:48.583Z,1568.00
2023-01-26T10:38:48.697Z,1572.00
2023-01-26T10:39:48.646Z,1564.00
2023-01-26T10:40:48.703Z,1560.00
2023-01-26T10:41:48.873Z,1544.00
2023-01-26T10:42:48.633Z,1516.00
2023-01-26T10:43:48.470Z,1508.00
2023-01-26T10:44:48.530Z,1512.00
2023-01-26T10:45:48.432Z,1536.00
2023-01-26T10:46:48.456Z,1560.00
2023-01-26T10:47:48.540Z,1560.00
2023-01-26T10:48:48.447Z,1552.00
2023-01-26T10:49:48.491Z,1556.00
2023-01-26T10:50:48.457Z,1584.00
2023-01-26T10:51:49.835Z,1620.00
2023-01-26T10:52:48.423Z,1668.00
2023-01-26T10:53:48.422Z,1660.00
2023-01-26T10:54:48.358Z,1620.00
2023-01-26T10:55:48.354Z,1568.00
2023-01-26T10:56:48.388Z,1504.00
2023-01-26T10:57:48.455Z,1440.00
2023-01-26T10:58:48.394Z,1372.00
2023-01-26T10:59:48.320Z,1328.00
2023-01-26T11:00:48.271Z,1316.00
2023-01-26T11:01:48.570Z,1336.00
2023-01-26T11:02:48.412Z,1384.00
2023-01-26T11:03:48.307Z,1456.00
2023-01-26T11:04:48.275Z,1528.00
2023-01-26T11:05:48.292Z,1584.00
2023-01-26T11:06:48.341Z,1624.00
2023-01-26T11:07:48.254Z,1664.00
2023-01-26T11:08:48.194Z,1672.00
2023-01-26T11:09:48.218Z,1656.00
2023-01-26T11:10:48.229Z,1648.00
2023-01-26T11:11:48.204Z,1652.00
2023-01-26T11:12:48.244Z,1652.00
2023-01-26T11:13:48.246Z,1652.00
2023-01-26T11:14:48.178Z,1656.00
2023-01-26T11:15:48.197Z,1668.00
2023-01-26T11:16:48.144Z,1672.00
2023-01-26T11:17:48.120Z,1684.00
2023-01-26T11:18:48.113Z,1696.00
2023-01-26T11:19:48.072Z,1720.00
2023-01-26T11:20:48.076Z,1740.00
2023-01-26T11:21:48.064Z,1728.00
2023-01-26T11:22:48.079Z,1704.00
2023-01-26T11:23:48.081Z,1708.00
2023-01-26T11:24:48.020Z,1716.00
2023-01-26T11:25:48.049Z,1724.00
2023-01-26T11:26:48.062Z,1732.00
2023-01-26T11:27:48.036Z,1720.00
2023-01-26T11:28:48.010Z,1716.00
2023-01-26T11:29:47.986Z,1696.00
2023-01-26T11:30:48.041Z,1704.00
2023-01-26T11:31:48.069Z,1736.00
2023-01-26T11:32:48.023Z,1764.00
2023-01-26T11:33:48.019Z,1792.00
2023-01-26T11:34:47.970Z,1808.00
2023-01-26T11:35:47.962Z,1812.00
2023-01-26T11:36:47.969Z,1840.00
2023-01-26T11:37:47.905Z,1868.00
2023-01-26T11:38:47.908Z,1912.00
2023-01-26T11:39:47.920Z,1936.00
2023-01-26T11:40:47.888Z,1940.00
2023-01-26T11:41:47.885Z,1908.00
2023-01-26T11:42:47.899Z,1844.00
2023-01-26T11:43:47.893Z,1744.00
2023-01-26T11:44:47.825Z,1648.00
2023-01-26T11:45:47.914Z,1540.00
2023-01-26T11:46:47.902Z,1428.00
2023-01-26T11:47:47.871Z,1360.00
2023-01-26T11:48:47.859Z,1328.00
2023-01-26T11:49:47.868Z,1300.00
2023-01-26T11:50:47.833Z,1272.00
2023-01-26T11:51:47.826Z,1248.00
2023-01-26T11:52:47.849Z,1232.00
2023-01-26T11:53:47.767Z,1208.00
2023-01-26T11:54:47.776Z,1180.00
2023-01-26T11:55:47.792Z,1172.00
2023-01-26T11:56:47.825Z,1168.00
2023-01-26T11:57:47.793Z,1176.00
2023-01-26T11:58:47.733Z,1180.00
2023-01-26T11:59:47.661Z,1184.00
2023-01-26T12:00:47.675Z,1160.00
2023-01-26T12:01:47.692Z,1140.00
2023-01-26T12:02:47.681Z,1132.00
2023-01-26T12:03:47.688Z,1136.00
2023-01-26T12:04:47.646Z,1148.00
2023-01-26T12:05:47.660Z,1132.00
2023-01-26T12:06:47.619Z,1100.00
2023-01-26T12:07:47.640Z,1060.00
2023-01-26T12:08:47.588Z,1036.00
2023-01-26T12:09:47.593Z,1024.00
2023-01-26T12:10:47.571Z,1012.00
2023-01-26T12:11:47.608Z,1004.00
2023-01-26T12:12:47.569Z,988.00
2023-01-26T12:13:47.545Z,988.00
2023-01-26T12:14:47.636Z,976.00
2023-01-26T12:15:47.533Z,972.00
2023-01-26T12:16:47.619Z,956.00
2023-01-26T12:17:47.616Z,940.00
2023-01-26T12:18:58.743Z,932.00
2023-01-26T12:19:49.525Z,960.00
2023-01-26T12:20:47.533Z,960.00
2023-01-26T12:21:47.540Z,956.00
2023-01-26T12:22:47.537Z,948.00
2023-01-26T12:23:47.619Z,944.00
2023-01-26T12:25:12.224Z,936.00
2023-01-26T12:25:49.650Z,932.00
2023-01-26T12:26:47.481Z,920.00
2023-01-26T12:27:47.474Z,920.00
2023-01-26T12:28:47.469Z,924.00
2023-01-26T12:29:47.406Z,936.00
2023-01-26T12:30:47.551Z,948.00
2023-01-26T12:31:47.481Z,956.00
2023-01-26T12:32:47.456Z,964.00
2023-01-26T12:33:47.629Z,960.00
2023-01-26T12:34:47.478Z,960.00
2023-01-26T12:35:47.407Z,964.00
2023-01-26T12:36:47.392Z,964.00
2023-01-26T12:37:47.464Z,968.00
2023-01-26T12:38:47.373Z,968.00
2023-01-26T12:39:47.362Z,972.00
2023-01-26T12:40:47.362Z,968.00
2023-01-26T12:41:47.437Z,960.00
2023-01-26T12:42:47.367Z,948.00
2023-01-26T12:43:47.366Z,948.00
2023-01-26T12:44:47.298Z,944.00
2023-01-26T12:45:47.408Z,940.00
2023-01-26T12:46:47.298Z,936.00
2023-01-26T12:47:47.349Z,928.00
2023-01-26T12:48:47.311Z,924.00
2023-01-26T12:49:47.306Z,920.00
2023-01-26T12:50:47.264Z,908.00